Time;durP1;ratioP1;P1;durP2;ratioP2;P2;SDS_P1;SDS_P2;PMS_P1;PMS_P2;Temp;Humidity;BMP_temperature;BMP_pressure;BME280_temperature;BME280_humidity;BME280_pressure;Samples;Min_cycle;Max_cycle;Signal;HPM_P1;HPM_P2
2022/07/04 00:00:55;;;;;;;8.45;4.30;;;;;;;23.53;47.83;99686.81;5050561;28;20566;-57
2022/07/04 00:03:22;;;;;;;5.90;4.03;;;;;;;23.48;48.20;99698.31;5050657;28;20188;-57
2022/07/04 00:05:49;;;;;;;14.27;3.60;;;;;;;23.41;47.87;99698.53;5050623;28;20597;-57
2022/07/04 00:08:17;;;;;;;3.97;3.50;;;;;;;23.46;47.47;99697.50;5050652;28;20203;-57
2022/07/04 00:10:44;;;;;;;6.57;4.03;;;;;;;23.48;46.96;99687.81;5050583;28;20196;-66
2022/07/04 00:13:11;;;;;;;8.17;3.53;;;;;;;23.52;47.23;99685.94;5050751;28;20605;-66
2022/07/04 00:15:38;;;;;;;7.00;3.67;;;;;;;23.55;46.91;99684.97;5050790;28;20192;-66
2022/07/04 00:18:05;;;;;;;4.40;3.40;;;;;;;23.58;46.64;99684.88;5050398;28;20199;-66
2022/07/04 00:20:31;;;;;;;9.27;3.95;;;;;;;23.60;46.12;99681.28;5049659;28;20451;-66
2022/07/04 00:22:58;;;;;;;4.60;3.63;;;;;;;23.59;46.34;99679.59;5050370;28;20702;-66
2022/07/04 00:25:27;;;;;;;6.83;3.87;;;;;;;23.59;46.32;99670.88;5050518;28;20200;-66
2022/07/04 00:27:54;;;;;;;4.97;3.53;;;;;;;23.59;46.72;99668.25;5050838;28;20230;-65
2022/07/04 00:30:20;;;;;;;7.87;3.93;;;;;;;23.60;45.82;99667.31;5050250;28;20682;-66
2022/07/04 00:32:47;;;;;;;4.87;2.97;;;;;;;23.61;45.67;99662.03;5050244;28;20662;-66
2022/07/04 00:35:14;;;;;;;3.63;3.33;;;;;;;23.50;45.76;99666.78;5050419;28;20193;-66
2022/07/04 00:37:41;;;;;;;5.20;3.33;;;;;;;23.54;44.99;99657.88;5050255;28;20188;-66
2022/07/04 00:40:09;;;;;;;6.15;3.65;;;;;;;23.63;45.04;99661.97;5049018;28;20443;-66
2022/07/04 00:42:37;;;;;;;14.03;6.10;;;;;;;23.74;44.78;99659.84;5050432;28;20193;-66
2022/07/04 00:45:04;;;;;;;17.10;5.40;;;;;;;23.77;44.78;99659.72;5050166;28;20232;-65
2022/07/04 00:47:33;;;;;;;10.00;3.70;;;;;;;23.78;44.09;99657.06;5050271;28;20266;-66
2022/07/04 00:50:00;;;;;;;21.60;4.53;;;;;;;23.79;44.07;99661.38;5050308;28;20283;-66
2022/07/04 00:52:26;;;;;;;5.07;3.50;;;;;;;23.72;44.65;99649.41;5050151;28;20196;-66
2022/07/04 00:54:53;;;;;;;13.80;3.33;;;;;;;23.69;45.33;99656.50;5050165;28;20567;-66
2022/07/04 00:57:20;;;;;;;5.00;3.85;;;;;;;23.73;44.54;99652.88;5049729;28;20944;-66
2022/07/04 00:59:48;;;;;;;6.40;3.67;;;;;;;23.78;44.84;99654.44;5049851;28;20196;-66
2022/07/04 01:02:16;;;;;;;5.77;3.30;;;;;;;23.78;44.98;99653.59;5050213;28;20257;-66
2022/07/04 01:04:43;;;;;;;8.83;3.30;;;;;;;23.76;45.32;99650.16;5049863;28;20548;-66
2022/07/04 01:07:12;;;;;;;8.03;3.77;;;;;;;23.72;46.18;99646.78;5049875;28;20196;-66
2022/07/04 01:09:39;;;;;;;8.90;3.97;;;;;;;23.51;46.11;99610.78;5050207;28;20238;-66
2022/07/04 01:12:07;;;;;;;6.00;3.53;;;;;;;23.57;46.14;99644.66;5049915;28;20207;-66
2022/07/04 01:14:38;;;;;;;4.57;3.90;;;;;;;23.60;46.19;99636.69;5064298;28;20442;-65
2022/07/04 01:17:06;;;;;;;8.40;4.07;;;;;;;23.58;46.59;99641.13;5069724;28;20659;-66
2022/07/04 01:19:33;;;;;;;8.40;3.57;;;;;;;23.58;46.59;99641.13;5069982;28;20249;-66
2022/07/04 01:22:07;;;;;;;4.70;4.20;;;;;;;23.56;46.14;99635.09;5069718;28;20211;-66
2022/07/04 01:24:34;;;;;;;4.40;3.53;;;;;;;23.57;46.11;99635.97;5070101;28;20210;-67
2022/07/04 01:27:01;;;;;;;5.93;3.90;;;;;;;23.57;46.05;99636.78;5069850;28;20200;-67
2022/07/04 01:29:28;;;;;;;7.97;4.37;;;;;;;23.53;46.67;99627.34;5069623;28;20210;-66
2022/07/04 01:31:54;;;;;;;6.70;3.40;;;;;;;23.57;46.52;99625.47;5070151;28;20677;-66
2022/07/04 01:34:21;;;;;;;7.00;3.90;;;;;;;23.53;46.50;99624.72;5073677;28;20218;-66
2022/07/04 01:36:48;;;;;;;7.40;4.20;;;;;;;23.52;47.41;99616.88;5073941;28;20195;-66
2022/07/04 01:39:16;;;;;;;6.93;4.17;;;;;;;23.51;47.37;99616.03;5073526;28;20681;-66
2022/07/04 01:41:43;;;;;;;6.60;3.60;;;;;;;23.45;47.51;99600.50;5073444;28;20220;-66
2022/07/04 01:44:10;;;;;;;8.73;4.27;;;;;;;23.48;47.42;99614.38;5073923;28;20203;-66
2022/07/04 01:46:37;;;;;;;4.87;4.33;;;;;;;23.53;47.17;99608.97;5073309;28;20744;-66
2022/07/04 01:49:03;;;;;;;8.02;4.40;;;;;;;23.55;47.50;99619.41;5072713;28;20445;-66
2022/07/04 01:51:30;;;;;;;5.73;3.90;;;;;;;23.61;47.36;99614.81;5073324;28;20673;-67
2022/07/04 01:53:57;;;;;;;8.17;3.37;;;;;;;23.49;47.50;99612.59;5073565;28;20210;-67
2022/07/04 01:56:25;;;;;;;4.97;3.60;;;;;;;23.49;47.36;99615.22;5073571;28;20192;-66
2022/07/04 01:58:52;;;;;;;6.37;3.70;;;;;;;23.45;47.71;99624.97;5073307;28;20191;-66
2022/07/04 02:01:30;;;;;;;5.70;3.73;;;;;;;23.46;47.95;99620.56;5073207;28;20819;-66
2022/07/04 02:03:57;;;;;;;5.10;3.93;;;;;;;23.42;47.74;99626.84;5073509;28;20203;-67
2022/07/04 02:06:24;;;;;;;6.30;3.70;;;;;;;23.43;48.03;99629.41;5073424;28;20203;-66
2022/07/04 02:14:24;;;;;;;4.83;4.33;;;;;;;23.51;48.03;99630.91;5047174;28;20683;-66
2022/07/04 02:16:51;;;;;;;10.13;4.47;;;;;;;23.44;48.81;99631.13;5072861;28;20198;-67
2022/07/04 02:19:18;;;;;;;4.13;3.83;;;;;;;23.40;48.90;99626.03;5072725;28;20196;-66
2022/07/04 02:21:45;;;;;;;7.37;4.60;;;;;;;23.18;48.87;99593.53;5072581;28;20211;-66
2022/07/04 02:24:12;;;;;;;5.03;4.33;;;;;;;23.35;49.11;99630.53;5072427;28;20609;-66
2022/07/04 02:26:40;;;;;;;10.10;4.50;;;;;;;23.25;49.19;99635.22;5072599;28;20192;-66
2022/07/04 02:29:07;;;;;;;6.03;3.93;;;;;;;23.19;49.51;99632.81;5072728;28;20201;-66
2022/07/04 02:31:34;;;;;;;4.80;4.40;;;;;;;23.16;50.02;99637.28;5070572;28;20200;-66
2022/07/04 02:34:01;;;;;;;5.80;4.10;;;;;;;23.11;50.10;99641.81;5072292;28;20203;-66
2022/07/04 02:36:28;;;;;;;6.13;4.67;;;;;;;23.07;50.21;99648.09;5072609;28;20195;-65
2022/07/04 02:38:54;;;;;;;5.37;4.40;;;;;;;23.04;50.48;99651.66;5072449;28;20200;-66
2022/07/04 02:41:21;;;;;;;7.70;4.60;;;;;;;22.96;51.26;99647.56;5072152;28;20265;-65
2022/07/04 02:43:49;;;;;;;7.13;4.70;;;;;;;23.00;51.32;99649.16;5070806;28;20453;-65
2022/07/04 02:46:16;;;;;;;7.13;4.87;;;;;;;23.01;51.25;99650.91;5072106;28;20272;-66
2022/07/04 02:48:43;;;;;;;8.00;5.00;;;;;;;22.91;51.40;99653.78;5072198;28;20199;-66
2022/07/04 02:51:10;;;;;;;5.47;4.43;;;;;;;22.81;51.48;99657.63;5072402;28;20191;-66
2022/07/04 02:53:36;;;;;;;8.27;4.33;;;;;;;22.80;51.79;99660.25;5072125;28;20195;-65
2022/07/04 02:56:04;;;;;;;11.80;5.50;;;;;;;22.81;51.47;99662.84;5072435;28;20191;-66
2022/07/04 02:58:32;;;;;;;8.80;5.10;;;;;;;22.81;51.55;99660.22;5072164;28;20196;-66
2022/07/04 03:01:01;;;;;;;5.73;4.93;;;;;;;22.79;51.67;99666.44;5071809;28;20224;-66
2022/07/04 03:03:28;;;;;;;8.23;4.70;;;;;;;22.67;51.76;99662.41;5072071;28;20591;-65
2022/07/04 03:05:55;;;;;;;15.90;4.50;;;;;;;22.77;51.73;99669.06;5072026;28;20564;-66
2022/07/04 03:08:22;;;;;;;6.07;4.57;;;;;;;22.91;51.93;99668.66;5071545;28;20195;-65
2022/07/04 03:10:50;;;;;;;6.30;4.97;;;;;;;23.12;52.01;99678.50;5071797;28;20674;-65
2022/07/04 03:13:17;;;;;;;5.83;5.00;;;;;;;23.33;50.83;99674.31;5071729;28;20274;-66
2022/07/04 03:15:44;;;;;;;10.47;5.17;;;;;;;23.44;51.20;99677.47;5071813;28;20202;-65
2022/07/04 03:18:13;;;;;;;9.57;5.50;;;;;;;23.43;50.00;99675.78;5070769;28;20438;-66
2022/07/04 03:20:40;;;;;;;6.53;5.10;;;;;;;23.47;50.11;99675.59;5071503;28;20191;-66
2022/07/04 03:23:07;;;;;;;8.77;6.27;;;;;;;23.39;50.35;99679.38;5071752;28;20225;-67
2022/07/04 03:25:33;;;;;;;8.60;5.13;;;;;;;23.36;50.78;99677.69;5071816;28;20191;-66
2022/07/04 03:28:00;;;;;;;8.10;5.27;;;;;;;23.30;51.36;99671.78;5071780;28;20199;-65
2022/07/04 03:30:27;;;;;;;12.80;5.95;;;;;;;23.25;51.98;99664.06;5071260;28;20525;-66
2022/07/04 03:32:54;;;;;;;9.57;5.40;;;;;;;23.14;52.66;99667.94;5070831;28;20195;-66
2022/07/04 03:35:22;;;;;;;7.70;6.00;;;;;;;23.11;53.26;99665.41;5071044;28;20638;-65
2022/07/04 03:37:50;;;;;;;10.47;6.13;;;;;;;23.07;53.54;99671.69;5071419;28;20195;-65
2022/07/04 03:40:17;;;;;;;7.03;5.23;;;;;;;23.04;54.08;99666.53;5071039;28;20192;-66
2022/07/04 03:42:44;;;;;;;7.47;5.40;;;;;;;23.08;54.38;99665.50;5070846;28;20219;-65
2022/07/04 03:45:12;;;;;;;17.40;6.73;;;;;;;23.16;54.50;99659.13;5069584;28;20224;-66
2022/07/04 03:47:39;;;;;;;10.97;5.47;;;;;;;23.11;54.76;99654.94;5068283;28;20571;-56
2022/07/04 03:50:06;;;;;;;7.37;5.43;;;;;;;22.99;55.87;99661.41;5067487;28;20576;-56
2022/07/04 03:52:35;;;;;;;10.90;6.23;;;;;;;22.94;55.79;99644.97;5070585;28;20274;-56
2022/07/04 03:55:02;;;;;;;5.70;5.20;;;;;;;22.97;55.58;99667.59;5070680;28;20310;-56
2022/07/04 03:57:28;;;;;;;6.73;5.23;;;;;;;22.64;56.69;99615.34;5071189;28;20191;-56
2022/07/04 03:59:55;;;;;;;5.63;5.13;;;;;;;22.92;56.21;99657.28;5071213;28;20246;-56
2022/07/04 04:02:22;;;;;;;6.20;5.70;;;;;;;22.78;56.59;99662.94;5070919;28;20219;-56
2022/07/04 04:07:34;;;;;;;7.23;5.80;;;;;;;22.70;57.20;99662.31;5070326;28;20245;-56
2022/07/04 04:10:01;;;;;;;6.13;5.27;;;;;;;22.64;57.88;99662.50;5070672;28;20200;-55
2022/07/04 04:12:28;;;;;;;8.20;5.97;;;;;;;22.58;56.48;99669.66;5070404;28;20690;-56
2022/07/04 04:14:55;;;;;;;7.43;5.73;;;;;;;22.64;56.82;99661.63;5070629;28;20438;-56
2022/07/04 04:17:22;;;;;;;9.80;5.67;;;;;;;22.62;56.50;99658.19;5070815;28;20457;-56
2022/07/04 04:19:48;;;;;;;8.83;5.60;;;;;;;22.68;56.01;99660.66;5070594;28;20202;-56
2022/07/04 04:22:15;;;;;;;10.50;5.07;;;;;;;22.63;56.00;99666.03;5070095;28;20216;-56
2022/07/04 04:24:43;;;;;;;7.07;5.00;;;;;;;22.62;56.20;99661.66;5070387;28;20188;-56
2022/07/04 04:27:10;;;;;;;7.60;4.93;;;;;;;22.63;56.23;99652.06;5070312;28;20204;-56
2022/07/04 04:29:37;;;;;;;7.90;5.13;;;;;;;22.74;55.41;99663.94;5070124;28;20191;-56
2022/07/04 04:32:04;;;;;;;11.53;6.60;;;;;;;22.75;56.36;99659.56;5070280;28;20187;-56
2022/07/04 04:34:33;;;;;;;8.03;5.63;;;;;;;22.83;55.86;99668.91;5070235;28;20574;-57
2022/07/04 04:37:00;;;;;;;6.33;5.73;;;;;;;22.91;54.75;99664.28;5070284;28;20566;-57
2022/07/04 04:39:27;;;;;;;9.80;5.57;;;;;;;22.95;54.81;99672.03;5070211;28;20194;-57
2022/07/04 04:41:55;;;;;;;10.20;8.30;;;;;;;23.09;54.22;99672.47;5069980;28;20222;-57
2022/07/04 04:44:22;;;;;;;13.15;10.07;;;;;;;23.16;54.06;99672.22;5070032;28;21271;-56
2022/07/04 04:46:49;;;;;;;6.47;5.43;;;;;;;23.23;53.54;99676.38;5070314;28;20302;-56
2022/07/04 04:49:16;;;;;;;10.73;5.13;;;;;;;23.29;52.95;99667.47;5070199;28;20191;-56
2022/07/04 04:51:43;;;;;;;13.13;5.60;;;;;;;23.38;53.28;99677.66;5070468;28;20975;-56
2022/07/04 04:54:10;;;;;;;9.43;6.27;;;;;;;23.37;53.71;99673.31;5070451;28;20238;-56
2022/07/04 04:56:37;;;;;;;13.63;6.47;;;;;;;23.34;53.94;99676.91;5070348;28;20194;-56
2022/07/04 04:59:07;;;;;;;9.77;6.23;;;;;;;23.44;53.98;99674.84;5070327;28;20192;-57
2022/07/04 05:01:34;;;;;;;6.97;5.90;;;;;;;23.57;54.24;99677.94;5069507;28;20219;-56
2022/07/04 05:04:01;;;;;;;10.20;6.07;;;;;;;23.59;53.38;99679.59;5069523;28;20192;-56
2022/07/04 05:06:28;;;;;;;10.17;6.03;;;;;;;23.69;53.50;99673.13;5069967;28;20199;-58
2022/07/04 05:08:55;;;;;;;9.27;6.50;;;;;;;23.74;53.96;99679.06;5076070;28;20653;-62
2022/07/04 05:11:22;;;;;;;9.07;6.37;;;;;;;23.75;53.04;99672.06;5076099;28;20202;-58
2022/07/04 05:13:49;;;;;;;13.80;6.60;;;;;;;23.81;52.60;99675.34;5076264;28;20191;-58
2022/07/04 05:16:17;;;;;;;9.33;5.87;;;;;;;23.90;52.09;99677.63;5076131;28;20191;-57
2022/07/04 05:18:44;;;;;;;7.53;6.67;;;;;;;23.87;52.96;99671.63;5076199;28;20191;-57
2022/07/04 05:21:10;;;;;;;7.67;6.13;;;;;;;24.10;52.07;99674.31;5075174;28;20206;-57
2022/07/04 05:23:37;;;;;;;10.53;6.70;;;;;;;24.27;51.25;99665.84;5076130;28;20208;-57
2022/07/04 05:26:04;;;;;;;13.43;7.33;;;;;;;24.43;50.62;99667.84;5075242;28;20191;-66
2022/07/04 05:28:31;;;;;;;11.47;6.70;;;;;;;24.32;50.21;99664.75;5080557;28;20187;-66
2022/07/04 05:30:58;;;;;;;10.40;6.93;;;;;;;24.42;50.67;99660.88;5078301;28;20195;-66
2022/07/04 05:33:26;;;;;;;10.17;5.97;;;;;;;24.45;49.91;99662.53;5075020;28;20562;-67
2022/07/04 05:35:53;;;;;;;7.93;6.03;;;;;;;24.55;50.31;99661.28;5075291;28;20210;-65
2022/07/04 05:38:20;;;;;;;8.73;5.50;;;;;;;24.69;49.06;99663.38;5067692;28;20457;-66
2022/07/04 05:40:47;;;;;;;5.67;5.13;;;;;;;24.89;47.96;99666.09;5071541;28;20440;-66
2022/07/04 05:43:14;;;;;;;7.87;4.90;;;;;;;24.95;47.84;99663.25;5075095;28;20218;-66
2022/07/04 05:45:41;;;;;;;10.23;5.47;;;;;;;25.07;47.36;99668.88;5075105;28;20225;-67
2022/07/04 05:48:07;;;;;;;5.40;4.87;;;;;;;25.07;46.56;99665.41;5075458;28;20234;-66
2022/07/04 05:50:36;;;;;;;9.83;5.20;;;;;;;25.12;47.06;99666.06;5075750;28;20196;-58
2022/07/04 05:53:03;;;;;;;8.80;5.37;;;;;;;25.21;46.51;99663.94;5074400;28;20437;-57
2022/07/04 05:55:29;;;;;;;7.37;5.30;;;;;;;25.32;45.44;99665.25;5075952;28;20274;-57
2022/07/04 05:57:57;;;;;;;8.23;4.33;;;;;;;25.32;45.45;99671.38;5075923;28;20195;-58
2022/07/04 06:00:25;;;;;;;9.90;4.60;;;;;;;25.41;44.16;99671.00;5075476;28;20206;-57
2022/07/04 06:02:51;;;;;;;8.03;4.93;;;;;;;25.39;44.97;99657.03;5074820;28;20215;-57
2022/07/04 06:05:18;;;;;;;8.27;4.80;;;;;;;25.36;44.15;99665.06;5075640;28;20558;-56
2022/07/04 06:07:48;;;;;;;8.80;5.23;;;;;;;25.38;43.92;99665.03;5074544;28;20203;-57
2022/07/04 06:10:15;;;;;;;6.43;5.10;;;;;;;25.42;43.74;99662.19;5074482;28;20535;-57
2022/07/04 06:12:42;;;;;;;10.90;4.30;;;;;;;25.48;43.86;99667.22;5071421;28;20194;-57
2022/07/04 06:15:09;;;;;;;6.30;4.07;;;;;;;25.46;41.97;99670.81;5075177;28;20207;-57
2022/07/04 06:17:36;;;;;;;10.17;4.60;;;;;;;25.47;43.13;99659.38;5074726;28;20277;-57
2022/07/04 06:20:04;;;;;;;4.57;4.17;;;;;;;25.55;43.48;99654.66;5068274;28;20196;-66
2022/07/04 06:22:40;;;;;;;9.80;4.40;;;;;;;25.69;42.88;99650.53;5052290;28;20318;-66
2022/07/04 06:25:11;;;;;;;10.33;5.13;;;;;;;25.76;43.11;99652.00;5057652;28;20195;-66
2022/07/04 06:27:38;;;;;;;8.50;4.97;;;;;;;25.82;43.38;99658.78;5069547;28;20211;-66
2022/07/04 06:30:06;;;;;;;5.87;4.43;;;;;;;25.87;43.01;99648.91;5071372;28;20664;-66
2022/07/04 06:32:45;;;;;;;5.90;4.43;;;;;;;25.85;41.87;99650.72;5066093;28;20188;-66
2022/07/04 06:38:12;;;;;;;5.17;4.70;;;;;;;26.01;41.63;99651.78;5028338;28;20184;-67
2022/07/04 06:40:40;;;;;;;5.20;4.43;;;;;;;26.01;41.19;99641.25;5021857;28;20193;-65
2022/07/04 06:43:07;;;;;;;6.77;4.43;;;;;;;26.09;41.65;99638.25;5043553;28;20791;-67
2022/07/04 06:45:34;;;;;;;8.53;4.77;;;;;;;26.11;41.25;99637.28;5068456;28;20226;-67
2022/07/04 06:48:02;;;;;;;6.22;4.72;;;;;;;26.20;42.38;99641.31;5070576;28;20912;-58
2022/07/04 06:50:32;;;;;;;5.85;4.35;;;;;;;26.26;41.19;99638.41;5070521;28;20195;-57
2022/07/04 06:52:59;;;;;;;5.30;4.68;;;;;;;26.31;41.03;99634.63;5070138;28;20187;-58
2022/07/04 06:55:35;;;;;;;10.07;4.20;;;;;;;26.29;40.97;99632.97;5071093;28;20600;-59
2022/07/04 06:58:04;;;;;;;6.20;4.77;;;;;;;26.38;40.46;99614.97;5065445;28;20206;-57
2022/07/04 07:00:30;;;;;;;8.50;4.60;;;;;;;26.37;41.36;99613.25;5070021;28;20214;-57
2022/07/04 07:02:58;;;;;;;5.60;4.57;;;;;;;26.44;41.54;99618.25;5071205;28;20230;-57
2022/07/04 07:05:26;;;;;;;9.77;4.20;;;;;;;26.43;40.38;99616.53;5070139;28;20184;-57
2022/07/04 07:07:53;;;;;;;7.57;4.20;;;;;;;26.51;39.57;99614.41;5066613;28;20209;-58
2022/07/04 07:10:20;;;;;;;5.35;4.47;;;;;;;26.56;39.44;99613.28;5071433;28;20192;-57
2022/07/04 07:12:47;;;;;;;4.65;4.15;;;;;;;26.65;40.35;99604.03;5071111;28;20975;-58
2022/07/04 07:15:16;;;;;;;9.60;5.00;;;;;;;26.69;39.78;99603.00;5068741;28;20212;-57
2022/07/04 07:17:44;;;;;;;6.90;4.93;;;;;;;26.78;40.15;99606.06;5070607;28;20191;-57
2022/07/04 07:20:13;;;;;;;6.90;4.25;;;;;;;26.88;38.56;99609.13;5070278;28;20253;-58
2022/07/04 07:22:40;;;;;;;7.55;4.70;;;;;;;26.91;39.25;99596.66;5069809;28;20493;-58
2022/07/04 07:25:07;;;;;;;6.73;4.90;;;;;;;27.16;39.24;99604.22;5070028;28;20685;-58
2022/07/04 07:27:34;;;;;;;9.77;4.53;;;;;;;27.17;39.09;99600.63;5071194;28;20191;-58
2022/07/04 07:30:01;;;;;;;7.07;5.53;;;;;;;27.29;39.25;99593.88;5069962;28;20191;-57
2022/07/04 07:32:29;;;;;;;5.93;5.20;;;;;;;27.34;39.57;99603.28;5070346;28;20562;-58
2022/07/04 07:34:56;;;;;;;8.50;4.97;;;;;;;27.40;39.33;99599.47;5069443;28;20195;-57
2022/07/04 07:37:23;;;;;;;7.45;4.90;;;;;;;27.49;39.64;99597.28;5067141;28;20929;-57
2022/07/04 07:39:50;;;;;;;9.15;4.75;;;;;;;27.63;39.20;99588.66;5068710;28;20195;-57
2022/07/04 07:42:17;;;;;;;7.50;5.05;;;;;;;27.65;39.10;99592.06;5069335;28;20710;-57
2022/07/04 07:44:46;;;;;;;6.97;5.25;;;;;;;27.73;39.11;99594.28;5069845;28;20228;-56
2022/07/04 07:47:12;;;;;;;6.78;4.97;;;;;;;27.81;39.44;99592.94;5069468;28;20281;-57
2022/07/04 07:49:41;;;;;;;8.40;4.95;;;;;;;27.87;39.29;99591.78;5069660;28;20196;-57
2022/07/04 07:52:08;;;;;;;5.70;5.20;;;;;;;27.92;39.14;99593.25;5070095;28;20195;-58
2022/07/04 07:54:35;;;;;;;5.70;5.18;;;;;;;27.97;38.66;99593.84;5070133;28;20191;-66
2022/07/04 07:57:02;;;;;;;8.70;5.35;;;;;;;28.04;38.87;99587.34;5069634;28;20456;-66
2022/07/04 07:59:29;;;;;;;10.00;5.47;;;;;;;28.20;39.37;99582.09;5070055;28;20202;-67
2022/07/04 08:01:55;;;;;;;6.28;4.63;;;;;;;28.31;38.08;99586.78;5069811;28;20196;-67
2022/07/04 08:04:37;;;;;;;6.43;4.85;;;;;;;28.36;38.30;99585.59;5070012;28;20195;-66
2022/07/04 08:07:07;;;;;;;5.32;4.93;;;;;;;28.39;38.59;99577.50;5069696;28;20199;-67
2022/07/04 08:09:36;;;;;;;5.43;5.03;;;;;;;28.35;37.75;99560.09;5069746;28;20226;-66
2022/07/04 08:12:05;;;;;;;9.40;5.40;;;;;;;28.55;37.57;99577.50;5068706;28;20433;-66
2022/07/04 08:14:34;;;;;;;6.97;5.60;;;;;;;28.65;38.04;99582.22;5069885;28;20199;-66
2022/07/04 08:17:01;;;;;;;6.57;5.03;;;;;;;28.71;37.46;99570.44;5069663;28;20612;-67
2022/07/04 08:19:28;;;;;;;6.15;4.78;;;;;;;28.73;37.11;99567.72;5069331;28;20250;-66
2022/07/04 08:21:55;;;;;;;5.43;4.60;;;;;;;28.75;36.92;99565.81;5069296;28;20191;-66
2022/07/04 08:24:23;;;;;;;7.85;4.90;;;;;;;28.76;37.05;99572.84;5069525;28;20242;-66
2022/07/04 08:26:51;;;;;;;7.45;5.32;;;;;;;28.81;38.20;99571.63;5069561;28;20692;-66
2022/07/04 08:29:18;;;;;;;7.00;5.35;;;;;;;28.89;36.90;99561.47;5069077;28;20223;-67
2022/07/04 08:31:45;;;;;;;6.90;4.78;;;;;;;29.01;36.13;99568.69;5068839;28;20922;-66
2022/07/04 08:34:12;;;;;;;6.63;5.55;;;;;;;29.03;36.12;99564.16;5069242;28;20629;-66
2022/07/04 08:36:39;;;;;;;5.88;4.82;;;;;;;29.21;36.64;99564.88;5069733;28;20195;-66
2022/07/04 08:39:06;;;;;;;5.70;5.07;;;;;;;29.12;36.47;99542.44;5069368;28;20750;-67
2022/07/04 08:41:38;;;;;;;7.63;4.78;;;;;;;29.10;35.30;99515.22;5068682;28;20210;-67
2022/07/04 08:44:06;;;;;;;8.02;4.80;;;;;;;29.36;34.94;99564.03;5069159;28;20272;-67
2022/07/04 08:46:36;;;;;;;6.43;5.38;;;;;;;29.46;35.49;99573.09;5068740;28;20575;-67
2022/07/04 08:49:08;;;;;;;6.13;5.03;;;;;;;29.57;35.42;99568.03;5069052;28;20199;-67
2022/07/04 08:51:47;;;;;;;6.60;4.55;;;;;;;29.60;35.17;99567.84;5069234;28;20210;-66
2022/07/04 08:59:48;;;;;;;5.22;4.72;;;;;;;29.95;34.28;99565.72;5068806;28;20511;-67
2022/07/04 09:02:17;;;;;;;6.47;4.80;;;;;;;30.06;34.58;99552.63;5069180;28;20199;-66
2022/07/04 09:04:45;;;;;;;8.57;5.13;;;;;;;30.18;34.03;99554.53;5068800;28;20202;-66
2022/07/04 09:07:12;;;;;;;4.63;4.20;;;;;;;30.16;31.40;99551.09;5068868;28;20441;-67
2022/07/04 09:09:40;;;;;;;4.55;4.15;;;;;;;29.90;31.37;99559.84;5069082;28;20754;-66
2022/07/04 09:12:09;;;;;;;4.75;4.45;;;;;;;30.04;31.96;99551.03;5069019;28;20192;-66
2022/07/04 09:14:36;;;;;;;6.32;5.38;;;;;;;30.21;31.94;99554.34;5068632;28;20548;-66
2022/07/04 09:17:04;;;;;;;8.88;6.38;;;;;;;30.42;29.35;99557.44;5068644;28;20273;-67
2022/07/04 09:19:31;;;;;;;6.57;4.22;;;;;;;30.60;27.29;99556.25;5068608;28;20286;-67
2022/07/04 09:22:04;;;;;;;3.15;2.83;;;;;;;30.66;23.26;99539.94;5068716;28;20217;-68
2022/07/04 09:24:47;;;;;;;4.35;3.13;;;;;;;30.93;23.80;99555.91;5067573;28;20442;-57
2022/07/04 09:27:31;;;;;;;6.30;3.60;;;;;;;31.08;25.28;99546.91;5068637;28;20195;-57
2022/07/04 09:29:58;;;;;;;5.22;3.70;;;;;;;31.22;26.28;99544.19;5069118;28;20191;-57
2022/07/04 09:32:34;;;;;;;4.60;4.05;;;;;;;31.32;26.96;99531.13;5068671;28;20206;-57
2022/07/04 09:35:01;;;;;;;4.70;4.07;;;;;;;31.37;26.21;99531.69;5068444;28;20669;-58
2022/07/04 09:37:35;;;;;;;6.10;4.45;;;;;;;31.43;26.50;99534.75;5068620;28;20192;-56
2022/07/04 09:40:03;;;;;;;6.07;4.60;;;;;;;31.52;26.47;99535.97;5068685;28;20681;-66
2022/07/04 09:42:37;;;;;;;7.47;4.97;;;;;;;31.68;27.86;99536.59;5068516;28;20290;-67
2022/07/04 09:45:10;;;;;;;6.72;4.82;;;;;;;31.74;26.12;99536.16;5068411;28;20235;-66
2022/07/04 09:47:37;;;;;;;5.75;4.25;;;;;;;31.74;25.84;99540.63;5068645;28;20223;-68
2022/07/04 09:50:06;;;;;;;6.18;3.63;;;;;;;31.71;26.12;99535.53;5068373;28;20496;-67
2022/07/04 09:52:44;;;;;;;7.82;7.18;;;;;;;31.82;26.33;99533.81;5068403;28;20217;-67
2022/07/04 09:55:11;;;;;;;5.20;4.70;;;;;;;31.85;26.66;99543.38;5072827;28;20290;-66
2022/07/04 09:57:44;;;;;;;7.90;4.03;;;;;;;31.64;27.53;99534.25;5072082;28;20232;-67
2022/07/04 10:00:20;;;;;;;4.70;4.30;;;;;;;31.40;27.68;99502.22;5070741;28;20903;-67
2022/07/04 10:02:47;;;;;;;6.35;5.05;;;;;;;31.70;27.51;99533.84;5072160;28;20219;-67
2022/07/04 10:05:20;;;;;;;4.93;4.25;;;;;;;31.67;27.42;99534.91;5071830;28;20198;-67
2022/07/04 10:07:47;;;;;;;6.40;4.03;;;;;;;31.76;26.95;99530.72;5071893;28;20209;-67
2022/07/04 10:10:30;;;;;;;6.93;5.85;;;;;;;31.82;27.48;99530.31;5071835;28;20195;-66
2022/07/04 10:13:02;;;;;;;6.07;5.47;;;;;;;31.96;27.16;99525.72;5071441;28;20191;-67
2022/07/04 10:15:30;;;;;;;5.78;3.83;;;;;;;31.94;27.15;99513.50;5071840;28;20199;-67
2022/07/04 10:17:57;;;;;;;9.40;5.32;;;;;;;32.06;27.09;99521.47;5071369;28;20192;-67
2022/07/04 10:20:24;;;;;;;8.38;4.55;;;;;;;31.99;27.51;99498.94;5072161;28;20585;-67
2022/07/04 10:22:51;;;;;;;4.80;4.35;;;;;;;32.29;27.58;99518.97;5071402;28;20225;-67
2022/07/04 10:25:18;;;;;;;6.85;4.55;;;;;;;32.41;26.87;99502.13;5071866;28;20207;-66
2022/07/04 10:27:45;;;;;;;7.13;3.65;;;;;;;32.60;26.43;99505.19;5071462;28;20658;-67
2022/07/04 10:30:16;;;;;;;7.97;4.68;;;;;;;32.75;25.76;99508.50;5071584;28;20195;-68
2022/07/04 10:32:46;;;;;;;5.00;4.50;;;;;;;32.80;26.50;99512.50;5071245;28;20199;-67
2022/07/04 10:35:14;;;;;;;4.70;3.72;;;;;;;32.59;26.36;99511.44;5070396;28;20448;-67
2022/07/04 10:38:08;;;;;;;4.38;4.00;;;;;;;32.83;27.01;99506.09;5071240;28;20191;-58
2022/07/04 10:40:43;;;;;;;7.13;3.75;;;;;;;33.02;26.25;99498.47;5035444;28;20222;-57
2022/07/04 10:43:50;;;;;;;6.82;4.00;;;;;;;33.17;26.81;99495.50;5071509;28;20296;-57
2022/07/04 10:46:38;;;;;;;5.55;4.00;;;;;;;33.30;25.44;99503.38;5071564;28;20716;-58
2022/07/04 10:49:07;;;;;;;8.18;5.82;;;;;;;33.28;26.15;99492.00;5071771;28;20206;-57
2022/07/04 10:51:41;;;;;;;8.85;7.28;;;;;;;33.34;27.48;99488.88;5071494;28;20560;-57
2022/07/04 10:54:10;;;;;;;4.70;4.18;;;;;;;33.37;25.88;99482.44;5070828;28;20542;-57
2022/07/04 10:56:43;;;;;;;6.80;5.05;;;;;;;33.53;26.09;99485.63;5071023;28;20195;-57
2022/07/04 10:59:12;;;;;;;7.30;6.47;;;;;;;33.49;26.28;99493.00;5071263;28;20269;-58
2022/07/04 11:01:46;;;;;;;6.57;3.75;;;;;;;33.16;25.78;99485.78;5071578;28;20586;-57
2022/07/04 11:04:13;;;;;;;7.78;4.10;;;;;;;33.03;26.93;99474.34;5071032;28;20219;-58
2022/07/04 11:06:54;;;;;;;6.53;5.47;;;;;;;33.24;26.56;99482.53;5070282;28;20202;-57
2022/07/04 11:09:22;;;;;;;7.20;4.80;;;;;;;33.28;26.81;99472.50;5070636;28;20445;-58
2022/07/04 11:11:51;;;;;;;3.97;3.60;;;;;;;33.43;26.55;99479.31;5071197;28;20199;-57
2022/07/04 11:14:40;;;;;;;6.22;4.22;;;;;;;33.60;26.71;99476.19;5070925;28;20198;-58
2022/07/04 11:17:10;;;;;;;3.92;3.63;;;;;;;33.55;26.20;99476.53;5070881;28;20195;-58
2022/07/04 11:19:37;;;;;;;4.63;4.22;;;;;;;33.46;26.15;99458.59;5070649;28;20226;-59
2022/07/04 11:22:06;;;;;;;8.63;4.05;;;;;;;33.38;26.56;99471.66;5070660;28;20195;-58
2022/07/04 11:24:34;;;;;;;7.22;4.75;;;;;;;33.52;26.85;99468.78;5070963;28;20602;-57
2022/07/04 11:27:01;;;;;;;5.70;5.10;;;;;;;33.57;27.68;99474.63;5070662;28;20626;-58
2022/07/04 11:29:28;;;;;;;5.35;4.40;;;;;;;33.57;26.95;99476.47;5070154;28;20882;-58
2022/07/04 11:31:55;;;;;;;4.40;4.05;;;;;;;33.56;26.57;99470.25;5070600;28;20203;-58
2022/07/04 11:34:25;;;;;;;4.85;4.40;;;;;;;33.52;26.00;99459.94;5070689;28;20218;-58
2022/07/04 11:36:53;;;;;;;8.93;4.97;;;;;;;33.53;26.11;99464.31;5061504;28;20196;-57
2022/07/04 11:39:22;;;;;;;6.70;3.92;;;;;;;33.46;26.49;99436.44;5051685;28;20196;-58
2022/07/04 11:47:23;;;;;;;9.45;7.47;;;;;;;33.90;27.17;99448.94;5055951;28;20195;-58
2022/07/04 11:49:53;;;;;;;5.70;4.18;;;;;;;33.98;26.59;99442.00;5063895;28;20586;-58
2022/07/04 11:52:23;;;;;;;5.05;4.05;;;;;;;34.03;25.92;99450.50;5065138;28;20192;-57
2022/07/04 11:54:51;;;;;;;5.30;4.63;;;;;;;34.10;26.61;99438.38;5066014;28;20237;-58
2022/07/04 11:57:21;;;;;;;8.32;4.53;;;;;;;34.19;26.39;99447.44;5066831;28;20187;-57
2022/07/04 11:59:57;;;;;;;4.45;4.13;;;;;;;34.20;25.33;99449.97;5059913;28;20547;-57